Time;durP1;ratioP1;P1;durP2;ratioP2;P2;SDS_P1;SDS_P2;PMS_P1;PMS_P2;Temp;Humidity;BMP_temperature;BMP_pressure;BME280_temperature;BME280_humidity;BME280_pressure;Samples;Min_cycle;Max_cycle;Signal;HPM_P1;HPM_P2
2022/06/28 00:00:19;;;;;;;14.30;11.18;;;14.00;99.90;;;;;;5041006;28;20049;-57
2022/06/28 00:02:44;;;;;;;16.10;12.23;;;14.10;99.90;;;;;;5041933;28;20041;-57
2022/06/28 00:05:11;;;;;;;18.02;12.82;;;14.10;99.90;;;;;;5040505;28;20111;-56
2022/06/28 00:07:37;;;;;;;13.93;11.90;;;14.10;99.90;;;;;;5040910;28;20038;-57
2022/06/28 00:10:04;;;;;;;15.98;12.45;;;14.00;99.90;;;;;;5040678;28;20042;-57
2022/06/28 00:12:29;;;;;;;14.77;10.90;;;14.10;99.90;;;;;;5041453;28;20505;-57
2022/06/28 00:17:40;;;;;;;17.77;13.23;;;13.90;99.90;;;;;;5040417;28;20072;-58
2022/06/28 00:20:06;;;;;;;18.50;12.73;;;14.00;99.90;;;;;;5041940;28;20033;-57
2022/06/28 00:22:32;;;;;;;16.33;12.85;;;13.90;99.90;;;;;;5024788;28;20045;-56
2022/06/28 00:24:57;;;;;;;18.35;14.75;;;13.90;99.90;;;;;;5021880;28;20087;-58
2022/06/28 00:27:23;;;;;;;20.38;13.60;;;13.80;99.90;;;;;;5020583;28;20038;-58
2022/06/28 00:29:49;;;;;;;17.83;13.70;;;13.80;99.90;;;;;;5021125;28;20038;-58
2022/06/28 00:32:14;;;;;;;16.63;13.93;;;13.70;99.90;;;;;;5020862;28;20107;-58
2022/06/28 00:34:40;;;;;;;22.35;14.40;;;13.80;99.90;;;;;;5020357;28;20105;-57
2022/06/28 00:37:06;;;;;;;16.60;13.75;;;13.70;99.90;;;;;;5021568;28;20065;-58
2022/06/28 00:39:31;;;;;;;18.48;14.10;;;13.70;99.90;;;;;;5020041;28;20041;-59
2022/06/28 00:41:57;;;;;;;18.45;13.63;;;13.70;99.90;;;;;;5021640;28;20055;-59
2022/06/28 00:44:23;;;;;;;20.98;15.35;;;13.70;99.90;;;;;;5020074;28;20137;-59
2022/06/28 00:46:49;;;;;;;17.42;14.98;;;13.70;99.90;;;;;;5021148;28;20080;-59
2022/06/28 00:49:15;;;;;;;21.75;16.48;;;13.70;99.90;;;;;;5020674;28;20045;-59
2022/06/28 00:51:41;;;;;;;17.77;14.00;;;13.70;99.90;;;;;;5027328;28;20091;-59
2022/06/28 00:54:07;;;;;;;19.05;15.00;;;13.80;99.90;;;;;;5040878;28;20038;-59
2022/06/28 00:56:33;;;;;;;18.83;13.98;;;13.80;99.90;;;;;;5038341;28;20049;-59
2022/06/28 00:59:00;;;;;;;18.38;15.10;;;13.70;99.90;;;;;;5041353;28;20087;-58
2022/06/28 01:01:27;;;;;;;20.23;15.30;;;13.70;99.90;;;;;;5039398;28;20033;-58
2022/06/28 01:03:54;;;;;;;21.92;15.13;;;13.70;99.90;;;;;;5040725;28;20049;-58
2022/06/28 01:06:20;;;;;;;19.02;15.00;;;13.70;99.90;;;;;;5040405;28;20445;-58
2022/06/28 01:08:46;;;;;;;17.85;14.77;;;13.60;99.90;;;;;;5039436;28;20053;-58
2022/06/28 01:11:19;;;;;;;19.17;15.48;;;13.60;99.90;;;;;;5039874;28;20077;-58
2022/06/28 01:13:50;;;;;;;21.15;16.45;;;13.60;99.90;;;;;;5038973;28;20061;-58
2022/06/28 01:16:18;;;;;;;18.30;14.73;;;13.60;99.90;;;;;;5040825;28;20045;-58
2022/06/28 01:18:44;;;;;;;19.10;16.25;;;13.50;99.90;;;;;;5039360;28;20723;-57
2022/06/28 01:21:13;;;;;;;23.25;16.15;;;13.50;99.90;;;;;;5036077;28;20117;-58
2022/06/28 01:23:40;;;;;;;18.58;15.43;;;13.50;99.90;;;;;;5020261;28;20097;-58
2022/06/28 01:26:05;;;;;;;21.10;16.58;;;13.60;99.90;;;;;;5019590;28;20042;-58
2022/06/28 01:28:32;;;;;;;19.92;14.98;;;13.50;99.90;;;;;;5020699;28;20125;-58
2022/06/28 01:30:58;;;;;;;20.67;16.40;;;13.30;99.90;;;;;;5019196;28;20086;-58
2022/06/28 01:33:24;;;;;;;17.25;14.00;;;13.50;99.90;;;;;;5020604;28;20042;-58
2022/06/28 01:35:50;;;;;;;17.80;14.40;;;13.50;99.90;;;;;;5019024;28;20117;-58
2022/06/28 01:38:16;;;;;;;20.05;15.93;;;13.40;99.90;;;;;;5020166;28;20099;-57
2022/06/28 01:40:45;;;;;;;19.83;16.05;;;13.40;99.90;;;;;;5019981;28;20060;-57
2022/06/28 01:43:13;;;;;;;19.60;16.13;;;13.40;99.90;;;;;;5019236;28;20049;-58
2022/06/28 01:45:40;;;;;;;23.45;16.45;;;13.30;99.90;;;;;;5020066;28;20042;-59
2022/06/28 01:48:06;;;;;;;22.08;16.35;;;13.40;99.90;;;;;;5018871;28;20057;-58
2022/06/28 01:50:32;;;;;;;20.17;15.77;;;13.40;99.90;;;;;;5020324;28;20034;-58
2022/06/28 01:52:57;;;;;;;17.50;13.80;;;13.40;99.90;;;;;;5037708;28;20077;-59
2022/06/28 01:55:23;;;;;;;19.45;14.82;;;13.40;99.90;;;;;;5038272;28;20033;-59
2022/06/28 01:57:49;;;;;;;21.15;15.02;;;13.40;99.90;;;;;;5039126;28;20046;-58
2022/06/28 02:00:15;;;;;;;18.50;14.60;;;13.30;99.90;;;;;;5038774;28;20104;-59
2022/06/28 02:02:41;;;;;;;17.80;13.23;;;13.40;99.90;;;;;;5039761;28;20127;-59
2022/06/28 02:05:08;;;;;;;18.90;13.35;;;13.40;99.90;;;;;;5038589;28;20076;-56
2022/06/28 02:07:33;;;;;;;16.35;12.80;;;13.40;99.90;;;;;;5040014;28;20056;-59
2022/06/28 02:09:59;;;;;;;18.15;12.00;;;13.40;99.90;;;;;;5038279;28;20050;-58
2022/06/28 02:12:28;;;;;;;18.25;13.18;;;13.30;99.90;;;;;;5039457;28;20080;-59
2022/06/28 02:14:57;;;;;;;16.95;12.55;;;13.30;99.90;;;;;;5038797;28;20046;-59
2022/06/28 02:17:24;;;;;;;16.70;12.07;;;13.30;99.90;;;;;;5038660;28;20056;-59
2022/06/28 02:19:50;;;;;;;18.08;11.88;;;13.40;99.90;;;;;;5039420;28;20097;-58
2022/06/28 02:22:16;;;;;;;16.35;12.90;;;13.30;99.90;;;;;;5024953;28;20093;-58
2022/06/28 02:24:41;;;;;;;14.77;11.77;;;13.30;99.90;;;;;;5018687;28;20085;-59
2022/06/28 02:27:07;;;;;;;14.30;11.73;;;13.30;99.90;;;;;;5018512;28;20430;-58
2022/06/28 02:29:33;;;;;;;16.30;11.50;;;13.30;99.90;;;;;;5019628;28;20767;-59
2022/06/28 02:31:58;;;;;;;16.20;12.45;;;13.20;99.90;;;;;;5018948;28;20046;-58
2022/06/28 02:42:37;;;;;;;18.00;11.27;;;13.20;99.90;;;;;;5017706;28;20081;-59
2022/06/28 02:45:03;;;;;;;16.20;11.48;;;13.20;99.90;;;;;;5019144;28;20057;-59
2022/06/28 02:47:28;;;;;;;16.90;11.65;;;13.20;99.90;;;;;;5018379;28;20451;-58
2022/06/28 02:49:54;;;;;;;16.40;12.15;;;13.20;99.90;;;;;;5019463;28;20071;-59
2022/06/28 02:52:19;;;;;;;13.70;10.45;;;13.20;99.90;;;;;;5031771;28;20625;-58
2022/06/28 02:54:45;;;;;;;21.45;12.73;;;13.10;99.90;;;;;;5039210;28;20128;-59
2022/06/28 02:57:11;;;;;;;16.17;11.10;;;13.10;99.90;;;;;;5038130;28;20041;-56
2022/06/28 02:59:36;;;;;;;14.13;11.30;;;13.20;99.90;;;;;;5038750;28;20046;-58
2022/06/28 03:02:02;;;;;;;13.93;10.02;;;13.10;99.90;;;;;;5038518;28;20057;-58
2022/06/28 03:04:28;;;;;;;16.33;11.18;;;13.10;99.90;;;;;;5038132;28;20049;-58
2022/06/28 03:06:53;;;;;;;16.00;11.40;;;13.00;99.90;;;;;;5037754;28;20058;-58
2022/06/28 03:09:19;;;;;;;15.25;11.57;;;13.00;99.90;;;;;;5037495;28;20088;-58
2022/06/28 03:11:45;;;;;;;15.73;10.52;;;13.00;99.90;;;;;;5039022;28;20057;-58
2022/06/28 03:14:10;;;;;;;18.15;11.00;;;13.00;99.90;;;;;;5037392;28;20065;-57
2022/06/28 03:16:36;;;;;;;14.80;9.50;;;13.00;99.90;;;;;;5037651;28;20037;-57
2022/06/28 03:19:02;;;;;;;15.52;10.73;;;12.90;99.90;;;;;;5038342;28;20038;-58
2022/06/28 03:21:27;;;;;;;13.88;10.57;;;13.00;99.90;;;;;;5031368;28;20060;-58
2022/06/28 03:23:53;;;;;;;16.17;10.73;;;13.00;99.90;;;;;;5019136;28;20077;-57
2022/06/28 03:26:19;;;;;;;18.10;11.02;;;13.00;99.90;;;;;;5017862;28;20084;-58
2022/06/28 03:28:44;;;;;;;13.88;10.63;;;13.00;99.90;;;;;;5019510;28;20038;-58
2022/06/28 03:31:10;;;;;;;16.75;11.30;;;13.00;99.90;;;;;;5017663;28;20092;-56
2022/06/28 03:33:35;;;;;;;13.95;10.80;;;13.00;99.90;;;;;;5021595;28;20052;-58
2022/06/28 03:36:01;;;;;;;16.13;10.18;;;13.00;99.90;;;;;;5021650;28;20045;-58
2022/06/28 03:38:27;;;;;;;13.82;10.63;;;13.00;99.90;;;;;;5022024;28;20077;-58
2022/06/28 03:40:53;;;;;;;18.05;10.70;;;13.00;99.90;;;;;;5022568;28;20833;-58
2022/06/28 03:43:18;;;;;;;16.35;10.35;;;12.90;99.90;;;;;;5021128;28;20088;-58
2022/06/28 03:45:44;;;;;;;15.60;10.65;;;13.00;99.90;;;;;;5022608;28;20521;-58
2022/06/28 03:48:09;;;;;;;17.58;10.15;;;13.00;99.90;;;;;;5020875;28;20546;-58
2022/06/28 03:50:35;;;;;;;14.02;10.57;;;12.90;99.90;;;;;;5022559;28;20062;-57
2022/06/28 03:53:02;;;;;;;15.68;10.15;;;13.10;99.90;;;;;;5040695;28;20156;-58
2022/06/28 03:55:27;;;;;;;14.00;9.82;;;13.10;99.90;;;;;;5041432;28;20044;-58
2022/06/28 03:57:53;;;;;;;12.40;9.70;;;13.20;99.90;;;;;;5041753;28;20439;-58
2022/06/28 04:00:18;;;;;;;17.98;10.88;;;13.10;99.90;;;;;;5040746;28;20038;-57
2022/06/28 04:02:44;;;;;;;15.77;10.90;;;13.10;99.90;;;;;;5042243;28;20126;-58
2022/06/28 04:05:10;;;;;;;15.20;9.88;;;13.10;99.90;;;;;;5040654;28;20091;-58
2022/06/28 04:07:36;;;;;;;15.55;9.68;;;13.10;99.90;;;;;;5042134;28;20068;-57
2022/06/28 04:10:02;;;;;;;15.35;10.23;;;13.20;99.90;;;;;;5040063;28;20593;-57
2022/06/28 04:12:29;;;;;;;13.30;9.50;;;13.10;99.90;;;;;;5041499;28;20076;-58
2022/06/28 04:14:54;;;;;;;13.93;9.95;;;13.20;99.90;;;;;;5040747;28;20048;-58
2022/06/28 04:17:20;;;;;;;13.02;9.45;;;13.20;99.90;;;;;;5040690;28;20050;-59
2022/06/28 04:19:45;;;;;;;18.80;9.63;;;13.20;99.90;;;;;;5041711;28;20041;-58
2022/06/28 04:22:11;;;;;;;14.10;9.20;;;13.30;99.90;;;;;;5027435;28;20037;-57
2022/06/28 04:24:37;;;;;;;16.02;10.15;;;13.30;99.90;;;;;;5022007;28;20053;-57
2022/06/28 04:27:03;;;;;;;14.95;10.30;;;13.30;99.90;;;;;;5020435;28;20040;-58
2022/06/28 04:29:28;;;;;;;15.30;9.55;;;13.40;99.90;;;;;;5021738;28;20050;-58
2022/06/28 04:31:54;;;;;;;14.10;9.70;;;13.50;99.90;;;;;;5019324;28;20060;-57
2022/06/28 04:34:20;;;;;;;13.13;8.75;;;13.50;99.90;;;;;;5020937;28;20046;-57
2022/06/28 04:36:45;;;;;;;13.38;9.45;;;13.60;99.90;;;;;;5021490;28;20049;-58
2022/06/28 04:39:11;;;;;;;12.98;8.55;;;13.60;99.90;;;;;;5019918;28;20044;-57
2022/06/28 04:41:37;;;;;;;16.25;8.75;;;13.70;99.90;;;;;;5021586;28;20125;-58
2022/06/28 04:44:02;;;;;;;15.18;8.65;;;13.80;99.90;;;;;;5019466;28;20046;-58
2022/06/28 04:46:28;;;;;;;12.52;8.13;;;13.70;99.90;;;;;;5021534;28;20038;-58
2022/06/28 04:48:54;;;;;;;13.73;7.45;;;13.80;99.90;;;;;;5020104;28;20045;-57
2022/06/28 04:51:20;;;;;;;14.13;9.35;;;13.90;99.90;;;;;;5026203;28;20045;-58
2022/06/28 04:53:47;;;;;;;13.68;9.18;;;14.00;99.90;;;;;;5040756;28;20046;-57
2022/06/28 04:56:14;;;;;;;12.20;8.30;;;14.10;99.90;;;;;;5039343;28;20687;-57
2022/06/28 04:58:40;;;;;;;13.10;8.27;;;14.20;99.90;;;;;;5041105;28;20053;-58
2022/06/28 05:01:05;;;;;;;15.00;8.45;;;14.40;99.90;;;;;;5039197;28;20049;-58
2022/06/28 05:03:31;;;;;;;13.18;8.00;;;14.40;99.90;;;;;;5041023;28;20038;-58
2022/06/28 05:05:57;;;;;;;13.80;7.85;;;14.50;99.90;;;;;;5039820;28;20041;-58
2022/06/28 05:08:24;;;;;;;17.35;9.23;;;14.50;99.90;;;;;;5040276;28;20041;-58
2022/06/28 05:10:49;;;;;;;11.50;7.95;;;14.70;99.90;;;;;;5040046;28;20056;-58
2022/06/28 05:13:15;;;;;;;11.48;7.40;;;14.70;99.90;;;;;;5039271;28;20049;-58
2022/06/28 05:15:41;;;;;;;13.07;7.65;;;14.80;99.90;;;;;;5040410;28;20037;-58
2022/06/28 05:18:07;;;;;;;12.32;6.43;;;14.90;99.90;;;;;;5038433;28;20033;-58
2022/06/28 05:20:32;;;;;;;14.02;7.18;;;15.00;99.90;;;;;;5023072;28;20049;-59
2022/06/28 05:22:58;;;;;;;11.07;6.68;;;15.00;99.90;;;;;;5035159;28;20080;-58
2022/06/28 05:25:25;;;;;;;15.43;6.15;;;15.10;99.90;;;;;;5037263;28;20050;-58
2022/06/28 05:27:51;;;;;;;10.70;5.32;;;15.20;99.90;;;;;;5036844;28;20152;-58
2022/06/28 05:30:17;;;;;;;13.70;6.60;;;15.20;99.90;;;;;;5036072;28;20037;-58
2022/06/28 05:32:43;;;;;;;12.82;6.97;;;15.30;99.90;;;;;;5036898;28;20081;-58
2022/06/28 05:35:09;;;;;;;11.55;6.90;;;15.40;99.90;;;;;;5035621;28;20840;-59
2022/06/28 05:37:35;;;;;;;10.70;5.47;;;15.40;99.90;;;;;;5037137;28;20124;-58
2022/06/28 05:40:02;;;;;;;10.85;6.00;;;15.50;99.90;;;;;;5035941;28;20592;-59
2022/06/28 05:42:28;;;;;;;11.65;5.50;;;15.50;99.90;;;;;;5036408;28;20056;-59
2022/06/28 05:44:53;;;;;;;12.25;6.03;;;15.60;99.90;;;;;;5035977;28;20041;-58
2022/06/28 05:47:19;;;;;;;10.63;5.50;;;15.80;99.90;;;;;;5036020;28;20084;-58
2022/06/28 05:49:45;;;;;;;10.38;5.35;;;15.80;99.90;;;;;;5037121;28;20068;-58
2022/06/28 05:52:10;;;;;;;11.40;5.40;;;15.80;99.90;;;;;;5035258;28;20057;-58
2022/06/28 05:54:36;;;;;;;14.77;5.57;;;15.90;99.90;;;;;;5037285;28;20053;-58
2022/06/28 05:57:02;;;;;;;8.85;4.57;;;16.00;99.90;;;;;;5034633;28;20071;-58
2022/06/28 05:59:28;;;;;;;10.15;4.82;;;16.00;99.90;;;;;;5036686;28;20052;-58
2022/06/28 06:01:55;;;;;;;14.23;5.53;;;16.10;99.90;;;;;;5036228;28;20417;-58
2022/06/28 06:04:22;;;;;;;9.05;4.43;;;16.10;99.90;;;;;;5035795;28;20060;-58
2022/06/28 06:06:47;;;;;;;13.38;4.93;;;16.20;99.90;;;;;;5036444;28;20056;-58
2022/06/28 06:09:13;;;;;;;11.90;4.43;;;16.20;99.90;;;;;;5035067;28;20041;-54
2022/06/28 06:11:39;;;;;;;9.70;4.53;;;16.30;99.90;;;;;;5035422;28;20042;-59
2022/06/28 06:14:05;;;;;;;11.95;5.03;;;16.50;99.90;;;;;;5035065;28;20073;-59
2022/06/28 06:16:31;;;;;;;10.65;4.75;;;16.50;99.90;;;;;;5036880;28;20081;-59
2022/06/28 06:18:57;;;;;;;10.57;4.18;;;16.50;99.90;;;;;;5035423;28;20052;-58
2022/06/28 06:21:22;;;;;;;10.38;4.07;;;16.60;99.90;;;;;;5029440;28;20038;-59
2022/06/28 06:23:48;;;;;;;11.73;4.28;;;16.70;99.90;;;;;;5016498;28;20050;-58
2022/06/28 06:26:14;;;;;;;11.23;4.38;;;16.80;99.90;;;;;;5015508;28;20052;-59
2022/06/28 06:28:39;;;;;;;11.00;4.25;;;16.90;99.90;;;;;;5016696;28;20106;-59
2022/06/28 06:31:07;;;;;;;11.00;3.95;;;16.90;99.90;;;;;;5014673;28;20098;-59
2022/06/28 06:33:34;;;;;;;13.43;3.97;;;17.10;99.90;;;;;;5016512;28;20048;-56
2022/06/28 06:36:01;;;;;;;11.70;5.20;;;17.10;99.90;;;;;;5015549;28;20101;-59
2022/06/28 06:38:26;;;;;;;12.13;4.05;;;17.20;99.90;;;;;;5015728;28;20128;-58
2022/06/28 06:40:54;;;;;;;10.15;3.83;;;17.20;99.90;;;;;;5016606;28;20104;-58
2022/06/28 06:43:20;;;;;;;12.25;4.45;;;17.30;99.90;;;;;;5014713;28;20167;-58
2022/06/28 06:45:46;;;;;;;10.68;3.78;;;17.20;99.90;;;;;;5016327;28;20662;-58
2022/06/28 06:48:12;;;;;;;9.38;3.30;;;17.30;99.90;;;;;;5014879;28;20073;-58
2022/06/28 06:50:37;;;;;;;11.88;3.65;;;17.40;99.90;;;;;;5016272;28;20054;-58
2022/06/28 06:53:03;;;;;;;10.00;3.65;;;17.40;99.90;;;;;;5035075;28;20049;-58
2022/06/28 06:55:29;;;;;;;8.85;4.07;;;17.30;99.90;;;;;;5033190;28;20044;-58
2022/06/28 06:57:55;;;;;;;11.00;3.78;;;17.50;99.90;;;;;;5025015;28;20044;-58
2022/06/28 07:00:20;;;;;;;8.93;3.85;;;17.50;99.90;;;;;;5023086;28;20490;-58
2022/06/28 07:02:47;;;;;;;8.68;3.38;;;17.60;99.90;;;;;;5026256;28;20059;-57
2022/06/28 07:05:13;;;;;;;10.40;3.65;;;17.80;99.90;;;;;;5025035;28;20046;-58
2022/06/28 07:07:39;;;;;;;10.05;3.50;;;17.50;99.90;;;;;;5026712;28;20038;-58
2022/06/28 07:10:05;;;;;;;12.52;3.30;;;17.80;99.90;;;;;;5026992;28;20054;-57
2022/06/28 07:12:31;;;;;;;8.50;3.55;;;17.80;99.90;;;;;;5028039;28;20083;-58
2022/06/28 07:14:57;;;;;;;10.60;3.55;;;18.00;99.90;;;;;;5024535;28;20105;-58
2022/06/28 07:17:22;;;;;;;10.38;3.40;;;18.00;99.90;;;;;;5018587;28;20045;-58
2022/06/28 07:19:48;;;;;;;10.65;3.08;;;18.10;99.90;;;;;;5019649;28;20056;-59
2022/06/28 07:22:14;;;;;;;12.57;3.25;;;18.20;99.90;;;;;;5031253;28;20080;-59
2022/06/28 07:24:39;;;;;;;9.20;2.92;;;18.20;99.90;;;;;;5039248;28;20121;-58
2022/06/28 07:27:05;;;;;;;9.02;3.15;;;18.20;99.90;;;;;;5037777;28;20103;-58
2022/06/28 07:29:31;;;;;;;9.73;2.95;;;18.30;99.90;;;;;;5038744;28;20054;-59
2022/06/28 07:31:57;;;;;;;11.75;2.70;;;18.40;99.90;;;;;;5038191;28;20056;-58
2022/06/28 07:34:23;;;;;;;9.93;2.15;;;18.50;99.90;;;;;;5038304;28;20080;-58
2022/06/28 07:36:49;;;;;;;9.75;2.40;;;18.30;99.90;;;;;;5039441;28;20267;-59
2022/06/28 07:39:15;;;;;;;8.55;2.25;;;18.10;99.90;;;;;;5037880;28;20054;-59
2022/06/28 07:41:41;;;;;;;9.05;3.00;;;18.20;99.90;;;;;;5039244;28;20045;-58
2022/06/28 07:44:06;;;;;;;10.82;2.55;;;18.30;99.90;;;;;;5037291;28;20034;-58
2022/06/28 07:46:32;;;;;;;9.50;2.05;;;18.50;99.90;;;;;;5038742;28;20049;-58
2022/06/28 07:48:58;;;;;;;7.50;2.20;;;18.40;99.90;;;;;;5038509;28;20053;-59
2022/06/28 07:54:08;;;;;;;8.02;2.83;;;18.60;99.90;;;;;;5039169;28;20059;-58
2022/06/28 07:56:34;;;;;;;7.53;2.28;;;18.30;99.90;;;;;;5036964;28;20121;-58
2022/06/28 07:59:00;;;;;;;7.57;1.88;;;18.60;99.90;;;;;;5039059;28;20053;-58
2022/06/28 08:01:26;;;;;;;9.00;2.00;;;18.30;99.90;;;;;;5037838;28;20672;-58
2022/06/28 08:03:52;;;;;;;8.55;1.75;;;18.20;99.90;;;;;;5040227;28;20073;-59
2022/06/28 08:06:18;;;;;;;6.53;1.50;;;18.30;99.90;;;;;;5041627;28;20083;-58
2022/06/28 08:08:43;;;;;;;6.47;1.92;;;18.60;99.90;;;;;;5040835;28;20533;-59
2022/06/28 08:11:10;;;;;;;11.82;2.13;;;18.50;99.90;;;;;;5041600;28;20092;-58
2022/06/28 08:13:37;;;;;;;10.60;1.95;;;18.40;99.90;;;;;;5038693;28;20129;-58
2022/06/28 08:16:03;;;;;;;12.07;2.80;;;18.30;99.90;;;;;;5041896;28;20053;-58
2022/06/28 08:18:29;;;;;;;7.57;1.85;;;18.30;99.90;;;;;;5040427;28;20624;-58
2022/06/28 08:20:55;;;;;;;8.10;1.67;;;18.30;99.90;;;;;;5038877;28;20057;-58
2022/06/28 08:23:21;;;;;;;4.85;1.23;;;18.70;99.90;;;;;;5021406;28;20049;-58
2022/06/28 08:25:47;;;;;;;8.00;1.80;;;18.90;99.90;;;;;;5020749;28;20097;-58
2022/06/28 08:28:13;;;;;;;9.55;2.22;;;19.00;99.90;;;;;;5021749;28;20649;-58
2022/06/28 08:30:41;;;;;;;7.63;1.58;;;18.90;99.90;;;;;;5018868;28;20075;-58
2022/06/28 08:33:07;;;;;;;5.78;1.20;;;19.30;99.90;;;;;;5021948;28;20065;-57
2022/06/28 08:35:34;;;;;;;7.15;1.35;;;19.30;99.90;;;;;;5020103;28;20058;-58
2022/06/28 08:38:00;;;;;;;7.05;1.27;;;19.40;99.90;;;;;;5021305;28;20078;-58
2022/06/28 08:40:27;;;;;;;5.15;1.00;;;19.60;99.90;;;;;;5020071;28;20054;-59
2022/06/28 08:42:56;;;;;;;5.85;1.05;;;19.60;99.90;;;;;;5019881;28;20140;-58
2022/06/28 08:45:23;;;;;;;4.00;1.30;;;19.60;99.90;;;;;;5019717;28;20050;-57
2022/06/28 08:47:56;;;;;;;5.25;1.20;;;19.80;99.90;;;;;;5018364;28;20037;-58
2022/06/28 08:50:33;;;;;;;7.97;1.33;;;19.80;99.90;;;;;;5020477;28;20111;-58
2022/06/28 08:53:05;;;;;;;5.43;1.40;;;20.00;99.90;;;;;;5038248;28;20060;-59
2022/06/28 08:55:32;;;;;;;6.63;1.58;;;20.10;99.90;;;;;;5039566;28;20053;-58
2022/06/28 08:58:04;;;;;;;7.07;1.63;;;19.90;99.90;;;;;;5040636;28;20120;-58
2022/06/28 09:00:30;;;;;;;8.07;1.40;;;19.90;99.90;;;;;;5039406;28;20077;-58
2022/06/28 09:02:56;;;;;;;6.65;1.50;;;19.70;99.90;;;;;;5040844;28;20087;-59
2022/06/28 09:05:23;;;;;;;7.93;1.90;;;19.80;99.90;;;;;;5039557;28;20073;-59
2022/06/28 09:07:50;;;;;;;8.52;1.77;;;19.90;99.90;;;;;;5041045;28;20048;-59
2022/06/28 09:10:17;;;;;;;5.68;1.13;;;19.50;99.90;;;;;;5039649;28;20140;-59
2022/06/28 09:12:42;;;;;;;9.48;1.55;;;20.00;99.90;;;;;;5039677;28;20045;-59
2022/06/28 09:15:08;;;;;;;6.90;1.30;;;20.10;99.90;;;;;;5039983;28;20037;-58
2022/06/28 09:17:35;;;;;;;11.63;1.70;;;20.40;99.90;;;;;;5038600;28;20052;-58
2022/06/28 09:20:06;;;;;;;4.93;1.35;;;20.40;99.90;;;;;;5038111;28;20107;-59
2022/06/28 09:22:41;;;;;;;5.93;1.25;;;20.40;99.90;;;;;;5022816;28;20145;-59
2022/06/28 09:25:10;;;;;;;7.15;1.40;;;20.10;99.90;;;;;;5020594;28;20041;-59
2022/06/28 09:27:38;;;;;;;9.25;1.90;;;20.20;99.90;;;;;;5020040;28;20066;-59
2022/06/28 09:30:07;;;;;;;7.45;1.67;;;20.10;99.90;;;;;;5018560;28;20034;-59
2022/06/28 09:32:35;;;;;;;7.07;1.77;;;19.70;99.90;;;;;;5020421;28;20132;-59
2022/06/28 09:35:07;;;;;;;7.30;1.50;;;19.70;99.90;;;;;;5017646;28;20060;-59
2022/06/28 09:37:51;;;;;;;7.32;1.40;;;20.10;99.90;;;;;;5019831;28;20465;-59
2022/06/28 09:40:28;;;;;;;8.52;1.70;;;20.40;99.90;;;;;;5019413;28;20049;-59
2022/06/28 09:43:14;;;;;;;9.48;1.77;;;19.80;99.90;;;;;;5019436;28;20050;-59
2022/06/28 09:45:46;;;;;;;7.47;1.63;;;19.50;99.90;;;;;;5019359;28;20041;-58
2022/06/28 09:48:17;;;;;;;7.20;1.52;;;19.30;99.90;;;;;;5016713;28;20061;-59
2022/06/28 09:50:43;;;;;;;6.03;1.00;;;19.20;99.90;;;;;;5019936;28;20049;-59
2022/06/28 09:53:13;;;;;;;6.88;1.40;;;19.30;99.90;;;;;;5038463;28;20072;-59
2022/06/28 09:55:40;;;;;;;6.18;1.30;;;19.00;99.90;;;;;;5037380;28;20140;-58
2022/06/28 09:58:07;;;;;;;6.80;1.80;;;19.00;99.90;;;;;;5039521;28;20047;-58
2022/06/28 10:00:35;;;;;;;8.18;1.50;;;18.90;99.90;;;;;;5037390;28;20648;-58
2022/06/28 10:03:01;;;;;;;6.18;1.65;;;19.20;99.90;;;;;;5039783;28;20576;-59
2022/06/28 10:05:27;;;;;;;8.68;1.80;;;19.30;99.90;;;;;;5038500;28;20065;-58
2022/06/28 10:07:53;;;;;;;6.32;1.60;;;19.60;99.90;;;;;;5039758;28;20041;-59
2022/06/28 10:10:22;;;;;;;8.43;1.77;;;19.90;99.90;;;;;;5038662;28;20129;-58
2022/06/28 10:15:50;;;;;;;7.70;1.48;;;19.70;99.90;;;;;;5039464;28;20038;-58
2022/06/28 10:18:19;;;;;;;6.78;1.30;;;20.00;99.90;;;;;;5038246;28;20033;-58
2022/06/28 10:20:46;;;;;;;8.98;2.25;;;20.00;99.90;;;;;;5038749;28;20048;-59
2022/06/28 10:23:43;;;;;;;8.15;1.50;;;20.30;99.90;;;;;;5019232;28;20050;-59
2022/06/28 10:26:11;;;;;;;9.65;2.33;;;20.50;99.90;;;;;;5020149;28;20078;-59
2022/06/28 10:29:03;;;;;;;9.93;1.42;;;20.70;99.90;;;;;;5019769;28;20128;-59
2022/06/28 10:31:30;;;;;;;7.95;1.58;;;21.10;99.90;;;;;;5018790;28;20049;-58
2022/06/28 10:34:01;;;;;;;7.80;1.73;;;21.00;99.90;;;;;;5019255;28;20106;-60
2022/06/28 10:36:39;;;;;;;8.13;2.08;;;20.70;99.90;;;;;;5019369;28;20149;-58
2022/06/28 10:39:07;;;;;;;6.78;1.70;;;20.90;99.90;;;;;;5018345;28;20049;-58
2022/06/28 10:41:43;;;;;;;8.77;2.28;;;21.10;99.90;;;;;;5020413;28;20075;-59
2022/06/28 10:44:38;;;;;;;7.97;1.85;;;21.20;99.90;;;;;;5022305;28;20037;-60
2022/06/28 10:47:03;;;;;;;7.43;1.48;;;21.10;99.90;;;;;;5009538;28;20053;-59
2022/06/28 10:50:00;;;;;;;8.57;1.50;;;21.30;99.90;;;;;;5023525;28;20038;-59
2022/06/28 10:52:26;;;;;;;8.85;1.70;;;21.50;99.90;;;;;;5024639;28;20076;-59
2022/06/28 10:54:52;;;;;;;7.72;1.48;;;21.10;99.90;;;;;;5042092;28;20107;-59
2022/06/28 10:57:32;;;;;;;7.20;1.40;;;21.40;99.90;;;;;;5042597;28;20047;-59
2022/06/28 11:00:01;;;;;;;8.23;2.00;;;21.30;99.90;;;;;;5042214;28;20046;-59
2022/06/28 11:02:49;;;;;;;7.22;1.30;;;21.60;99.90;;;;;;5041900;28;20154;-59
2022/06/28 11:05:17;;;;;;;4.55;1.38;;;21.70;99.90;;;;;;5041818;28;20053;-59
2022/06/28 11:07:59;;;;;;;4.60;1.20;;;21.90;99.90;;;;;;5042806;28;20610;-59
2022/06/28 11:10:26;;;;;;;11.25;1.80;;;21.90;99.90;;;;;;5042523;28;20469;-60
2022/06/28 11:12:51;;;;;;;6.95;1.65;;;21.70;99.90;;;;;;5041846;28;20140;-59
2022/06/28 11:15:36;;;;;;;9.88;1.85;;;21.80;99.90;;;;;;5042641;28;20409;-59
2022/06/28 11:18:13;;;;;;;6.40;1.30;;;21.90;99.90;;;;;;5041641;28;20045;-59
2022/06/28 11:20:39;;;;;;;8.85;1.40;;;21.80;99.90;;;;;;5042509;28;20068;-59
2022/06/28 11:23:05;;;;;;;8.45;1.92;;;21.50;99.90;;;;;;5022309;28;20049;-59
2022/06/28 11:28:16;;;;;;;5.15;1.33;;;20.90;99.90;;;;;;5023184;28;20060;-59
2022/06/28 11:30:42;;;;;;;9.50;1.65;;;20.70;99.90;;;;;;5021549;28;20065;-59
2022/06/28 11:33:10;;;;;;;10.98;2.17;;;20.70;99.90;;;;;;5022857;28;20034;-59
2022/06/28 11:35:36;;;;;;;6.03;1.80;;;20.70;99.90;;;;;;5021667;28;20037;-59
2022/06/28 11:38:07;;;;;;;10.02;1.75;;;20.80;99.90;;;;;;5022384;28;20038;-59
2022/06/28 11:40:49;;;;;;;7.63;1.77;;;21.30;99.90;;;;;;5022500;28;20072;-58
2022/06/28 11:43:18;;;;;;;7.38;1.70;;;21.70;99.90;;;;;;5020976;28;20049;-59
2022/06/28 11:45:46;;;;;;;8.90;1.42;;;22.00;99.90;;;;;;5022591;28;20045;-59
2022/06/28 11:48:15;;;;;;;6.95;1.70;;;21.90;99.90;;;;;;5021121;28;20097;-59
2022/06/28 11:50:46;;;;;;;6.32;1.00;;;22.30;99.90;;;;;;5022267;28;20053;-59
2022/06/28 11:53:14;;;;;;;5.63;1.63;;;22.30;99.90;;;;;;5040394;28;20044;-59
2022/06/28 11:55:45;;;;;;;6.13;1.40;;;22.00;99.90;;;;;;5041019;28;20498;-58
2022/06/28 11:58:23;;;;;;;9.27;2.15;;;21.70;99.90;;;;;;5042006;28;20574;-58
2022/06/28 12:01:09;;;;;;;9.57;1.77;;;21.40;99.90;;;;;;5031930;28;20047;-58
2022/06/28 12:03:58;;;;;;;6.57;1.50;;;21.60;99.90;;;;;;5041616;28;20044;-58
2022/06/28 12:06:29;;;;;;;9.25;1.73;;;21.60;99.90;;;;;;5041918;28;20042;-58
2022/06/28 12:09:05;;;;;;;8.70;1.90;;;21.80;99.90;;;;;;5040263;28;20042;-58
2022/06/28 12:11:44;;;;;;;6.90;1.50;;;22.00;99.90;;;;;;5041782;28;20053;-59
2022/06/28 12:14:14;;;;;;;9.60;2.13;;;21.80;99.90;;;;;;5040507;28;20053;-59
2022/06/28 12:17:00;;;;;;;7.57;1.70;;;21.70;99.90;;;;;;5041020;28;20045;-59
2022/06/28 12:19:28;;;;;;;7.10;1.33;;;21.10;99.90;;;;;;5041375;28;20040;-58
2022/06/28 12:22:03;;;;;;;9.45;1.73;;;21.50;99.90;;;;;;5029658;28;20046;-58
2022/06/28 12:24:46;;;;;;;6.63;1.80;;;21.20;99.90;;;;;;5022279;28;20073;-56
2022/06/28 12:27:15;;;;;;;8.07;1.92;;;21.60;99.90;;;;;;5028686;28;20041;-59
2022/06/28 12:29:41;;;;;;;7.63;1.45;;;21.00;99.90;;;;;;5030081;28;20041;-59
2022/06/28 12:32:07;;;;;;;5.65;1.50;;;21.00;99.90;;;;;;5031567;28;20105;-58
2022/06/28 12:34:33;;;;;;;9.10;2.08;;;21.00;99.90;;;;;;5028713;28;20064;-57
2022/06/28 12:36:59;;;;;;;7.38;1.67;;;21.00;99.90;;;;;;5032110;28;20104;-58
2022/06/28 12:39:24;;;;;;;5.35;1.55;;;21.00;99.90;;;;;;5020141;28;20042;-59
2022/06/28 12:41:51;;;;;;;5.65;1.38;;;21.10;99.90;;;;;;5019663;28;20046;-58
2022/06/28 12:44:17;;;;;;;7.78;2.10;;;21.60;99.90;;;;;;5018710;28;20061;-58
2022/06/28 12:46:44;;;;;;;8.52;1.80;;;22.00;99.90;;;;;;5020354;28;20054;-59
2022/06/28 12:49:10;;;;;;;10.43;2.60;;;21.60;99.90;;;;;;5019917;28;21403;-59
2022/06/28 12:51:36;;;;;;;7.63;1.45;;;21.90;99.90;;;;;;5027250;28;20081;-57
2022/06/28 12:54:02;;;;;;;6.90;1.88;;;21.80;99.90;;;;;;5041200;28;20033;-58
2022/06/28 12:56:28;;;;;;;8.68;1.80;;;21.90;99.90;;;;;;5039657;28;20052;-58
2022/06/28 12:58:57;;;;;;;7.63;1.30;;;21.90;99.90;;;;;;5041137;28;20034;-59